Halsey, Nebraska
Current Conditions -  °F | °C
As of 3:35 AM on Monday 20 Oct 2014 (Local Time) from KTIF Reporting Station
Clear Clear  
Wind Chill:   Ceiling: Unl
Heat Index:   Visibility: 10mi
Dew Point:   Wind: 5mph
Humidity: 82%   Direction: 290°WNW
Pressure: 30.1"   Gusts: NA
Location:  41.9°N, 100.27°W
Report Text: KTIF 200835Z AUTO 29004KT 10SM CLR 05/02 A3010 RMK AO2 T00530024
Loading
Personal Weather Stations






























Interactive Weather Map
Tropical Storm Tracking
New forecast layout! Learn more

10-Day Weather Forecast

Advertisements
Track Severe Weather on mobile